Time;durP1;ratioP1;P1;durP2;ratioP2;P2;SDS_P1;SDS_P2;PMS_P1;PMS_P2;Temp;Humidity;BMP_temperature;BMP_pressure;BME280_temperature;BME280_humidity;BME280_pressure;Samples;Min_cycle;Max_cycle;Signal;HPM_P1;HPM_P2
2022/02/04 00:23:44;;;;;;;;;;;9.20;88.90;;;;;;5080193;28;19916;-77
2022/02/04 00:31:29;;;;;;;;;;;9.20;87.30;;;;;;5080574;28;20003;-76
2022/02/04 00:34:01;;;;;;;;;;;9.20;87.20;;;;;;5078923;28;19984;-77
2022/02/04 00:39:25;;;;;;;;;;;9.20;87.00;;;;;;5077809;28;19909;-77
2022/02/04 00:41:52;;;;;;;;;;;9.20;87.10;;;;;;5079120;28;20429;-77
2022/02/04 00:44:22;;;;;;;;;;;9.20;87.50;;;;;;5075974;28;19924;-77
2022/02/04 00:52:18;;;;;;;;;;;9.20;87.20;;;;;;5037947;28;19944;-77
2022/02/04 01:25:54;;;;;;;;;;;9.10;89.40;;;;;;5078174;28;19935;-76
2022/02/04 01:27:21;;;;;;;;;;;9.10;89.80;;;;;;5077469;28;19939;-76
2022/02/04 01:30:02;;;;;;;;;;;9.10;90.00;;;;;;5078352;28;19912;-76
2022/02/04 01:32:28;;;;;;;;;;;9.10;90.00;;;;;;5076978;28;19942;-76
2022/02/04 01:34:54;;;;;;;;;;;9.00;90.10;;;;;;5077123;28;20334;-77
2022/02/04 01:37:19;;;;;;;;;;;9.10;90.30;;;;;;5076555;28;20371;-77
2022/02/04 01:39:45;;;;;;;;;;;9.10;90.40;;;;;;5075846;28;19912;-77
2022/02/04 01:42:11;;;;;;;;;;;9.10;90.40;;;;;;5076060;28;19917;-77
2022/02/04 01:44:37;;;;;;;;;;;9.10;90.50;;;;;;5075272;28;19968;-77
2022/02/04 01:47:03;;;;;;;;;;;9.10;90.50;;;;;;5072064;28;20410;-77
2022/02/04 01:49:30;;;;;;;;;;;9.10;90.60;;;;;;5076625;28;19913;-77
2022/02/04 01:51:56;;;;;;;;;;;9.10;90.70;;;;;;5078172;28;19920;-77
2022/02/04 01:54:23;;;;;;;;;;;9.10;90.70;;;;;;5072215;28;19917;-77
2022/02/04 01:56:49;;;;;;;;;;;9.10;90.60;;;;;;5077045;28;19963;-77
2022/02/04 01:59:15;;;;;;;;;;;9.10;90.70;;;;;;5077702;28;19912;-76
2022/02/04 02:01:41;;;;;;;;;;;9.10;90.80;;;;;;5077750;28;19999;-76
2022/02/04 02:04:10;;;;;;;;;;;9.10;90.80;;;;;;5076781;28;19920;-77
2022/02/04 02:06:44;;;;;;;;;;;9.10;90.80;;;;;;5078225;28;19908;-77
2022/02/04 02:09:10;;;;;;;;;;;9.10;90.80;;;;;;5066064;28;19915;-76
2022/02/04 02:11:36;;;;;;;;;;;9.10;90.80;;;;;;5078115;28;20375;-76
2022/02/04 02:14:05;;;;;;;;;;;9.10;90.80;;;;;;5077332;28;19917;-76
2022/02/04 02:44:36;;;;;;;;;;;9.10;90.90;;;;;;5056499;28;20347;-76
2022/02/04 02:50:03;;;;;;;;;;;9.00;91.10;;;;;;5077241;28;19913;-77
2022/02/04 02:55:17;;;;;;;;;;;9.00;90.90;;;;;;5073262;28;19916;-77
2022/02/04 03:01:02;;;;;;;;;;;9.00;91.00;;;;;;5020261;28;19914;-76
2022/02/04 03:03:30;;;;;;;;;;;9.00;91.10;;;;;;5006719;28;19921;-76
2022/02/04 03:05:56;;;;;;;;;;;9.00;91.10;;;;;;5060283;28;20291;-76
2022/02/04 03:08:22;;;;;;;;;;;9.00;91.10;;;;;;5076231;28;19965;-77
2022/02/04 03:10:53;;;;;;;;;;;9.00;91.20;;;;;;5077071;28;19912;-76
2022/02/04 03:13:20;;;;;;;;;;;9.00;91.20;;;;;;5077060;28;19920;-77
2022/02/04 03:15:46;;;;;;;;;;;9.00;91.20;;;;;;5075722;28;20286;-76
2022/02/04 03:18:22;;;;;;;;;;;9.00;91.30;;;;;;5076709;28;19954;-76
2022/02/04 03:20:50;;;;;;;;;;;9.00;91.30;;;;;;5077371;28;19975;-77
2022/02/04 03:23:17;;;;;;;;;;;9.00;91.40;;;;;;5077084;28;19931;-77
2022/02/04 03:25:48;;;;;;;;;;;9.00;91.40;;;;;;5076939;28;19919;-77
2022/02/04 03:28:19;;;;;;;;;;;9.00;91.40;;;;;;5074513;28;19913;-77
2022/02/04 03:30:46;;;;;;;;;;;9.00;91.50;;;;;;5077439;28;20435;-77
2022/02/04 03:33:12;;;;;;;;;;;9.00;91.60;;;;;;5076741;28;19919;-77
2022/02/04 03:35:38;;;;;;;;;;;9.00;91.70;;;;;;5077216;28;20315;-77
2022/02/04 03:38:03;;;;;;;;;;;9.00;91.80;;;;;;5079671;28;19978;-77
2022/02/04 03:40:29;;;;;;;;;;;9.00;91.80;;;;;;5080899;28;20303;-77
2022/02/04 03:42:55;;;;;;;;;;;9.00;91.80;;;;;;5080833;28;20409;-77
2022/02/04 03:45:22;;;;;;;;;;;9.00;91.80;;;;;;5080466;28;19938;-77
2022/02/04 03:47:48;;;;;;;;;;;9.00;91.90;;;;;;5079558;28;19976;-77
2022/02/04 03:50:13;;;;;;;;;;;9.00;92.00;;;;;;5079675;28;19995;-77
2022/02/04 03:52:39;;;;;;;;;;;9.00;92.20;;;;;;5078109;28;19952;-77
2022/02/04 03:55:06;;;;;;;;;;;9.00;92.20;;;;;;5078523;28;19923;-77
2022/02/04 03:57:31;;;;;;;;;;;9.00;92.20;;;;;;5080386;28;20390;-77
2022/02/04 03:59:57;;;;;;;;;;;9.00;92.30;;;;;;5080091;28;19912;-77
2022/02/04 04:02:23;;;;;;;;;;;9.00;92.30;;;;;;5079168;28;21828;-77
2022/02/04 04:04:49;;;;;;;;;;;9.00;92.20;;;;;;5079044;28;19955;-77
2022/02/04 04:07:14;;;;;;;;;;;9.00;92.20;;;;;;5079716;28;19944;-77
2022/02/04 04:09:47;;;;;;;;;;;9.00;92.20;;;;;;5079776;28;19944;-77
2022/02/04 04:12:12;;;;;;;;;;;9.00;92.20;;;;;;5079048;28;19912;-77
2022/02/04 04:14:38;;;;;;;;;;;9.00;92.30;;;;;;5079642;28;19977;-77
2022/02/04 04:17:04;;;;;;;;;;;9.00;92.40;;;;;;5080283;28;19912;-77
2022/02/04 04:19:29;;;;;;;;;;;9.00;92.50;;;;;;5080534;28;19974;-77
2022/02/04 04:21:55;;;;;;;;;;;9.10;92.70;;;;;;5079780;28;19998;-77
2022/02/04 04:24:20;;;;;;;;;;;9.10;92.70;;;;;;5080086;28;20007;-77
2022/02/04 04:26:46;;;;;;;;;;;9.10;92.60;;;;;;5078379;28;20372;-77
2022/02/04 04:29:12;;;;;;;;;;;9.10;92.60;;;;;;5079857;28;19923;-77
2022/02/04 04:31:37;;;;;;;;;;;9.10;92.70;;;;;;5080007;28;19913;-77
2022/02/04 04:34:03;;;;;;;;;;;9.10;92.60;;;;;;5078933;28;19916;-77
2022/02/04 04:36:29;;;;;;;;;;;9.10;92.60;;;;;;5079321;28;19978;-77
2022/02/04 04:39:06;;;;;;;;;;;9.10;92.70;;;;;;5079257;28;19944;-77
2022/02/04 05:25:38;;;;;;;;;;;9.20;92.80;;;;;;5078044;28;19934;-77
2022/02/04 05:30:40;;;;;;;;;;;9.20;92.40;;;;;;5064204;28;19909;-77
2022/02/04 05:33:05;;;;;;;;;;;9.20;92.40;;;;;;5077773;28;19912;-78
2022/02/04 05:35:31;;;;;;;;;;;9.20;92.40;;;;;;5077428;28;19924;-79
2022/02/04 05:37:57;;;;;;;;;;;9.20;92.40;;;;;;5078013;28;20428;-76
2022/02/04 05:40:27;;;;;;;;;;;9.10;92.30;;;;;;5078817;28;19909;-74
2022/02/04 05:42:59;;;;;;;;;;;9.10;92.40;;;;;;5077215;28;19930;-72
2022/02/04 05:45:29;;;;;;;;;;;9.20;92.40;;;;;;5078612;28;19913;-74
2022/02/04 05:47:59;;;;;;;;;;;9.10;92.40;;;;;;5078284;28;20482;-73
2022/02/04 05:50:35;;;;;;;;;;;9.10;92.40;;;;;;5078146;28;19920;-74
2022/02/04 05:53:22;;;;;;;;;;;9.10;92.70;;;;;;5077759;28;19912;-76
2022/02/04 06:01:05;;;;;;;;;;;9.00;92.40;;;;;;5076711;28;19939;-71
2022/02/04 06:03:46;;;;;;;;;;;9.00;92.40;;;;;;5076228;28;20395;-70
2022/02/04 06:06:39;;;;;;;;;;;9.00;92.40;;;;;;5075124;28;19913;-72
2022/02/04 06:09:26;;;;;;;;;;;9.00;92.40;;;;;;5077256;28;20546;-72
2022/02/04 06:14:54;;;;;;;;;;;9.00;92.50;;;;;;5070678;28;19993;-72
2022/02/04 06:22:50;;;;;;;;;;;9.00;92.40;;;;;;5076990;28;19946;-73
2022/02/04 06:25:16;;;;;;;;;;;9.00;92.60;;;;;;5077371;28;19913;-72
2022/02/04 06:27:42;;;;;;;;;;;9.00;92.50;;;;;;5077156;28;19924;-72
2022/02/04 06:30:09;;;;;;;;;;;9.00;92.50;;;;;;5076767;28;19912;-72
2022/02/04 06:32:34;;;;;;;;;;;9.00;92.50;;;;;;5077268;28;19917;-73
2022/02/04 06:35:01;;;;;;;;;;;9.00;92.50;;;;;;5076756;28;19917;-72
2022/02/04 06:37:27;;;;;;;;;;;9.00;92.60;;;;;;5077000;28;19918;-72
2022/02/04 06:39:52;;;;;;;;;;;9.00;92.70;;;;;;5076742;28;20438;-72
2022/02/04 06:42:19;;;;;;;;;;;9.10;92.90;;;;;;5077352;28;19912;-72
2022/02/04 06:44:45;;;;;;;;;;;9.00;92.80;;;;;;5074681;28;20521;-73
2022/02/04 06:47:10;;;;;;;;;;;9.00;92.80;;;;;;5077428;28;19965;-72
2022/02/04 06:49:36;;;;;;;;;;;9.10;93.00;;;;;;5062607;28;20398;-73
2022/02/04 06:52:03;;;;;;;;;;;9.10;93.20;;;;;;5076687;28;19916;-72
2022/02/04 06:54:30;;;;;;;;;;;9.10;93.30;;;;;;5073735;28;20375;-73
2022/02/04 06:56:56;;;;;;;;;;;9.20;93.50;;;;;;5077943;28;19909;-72
2022/02/04 06:59:21;;;;;;;;;;;9.10;93.60;;;;;;5075846;28;19965;-72
2022/02/04 07:01:47;;;;;;;;;;;9.10;93.70;;;;;;5075523;28;19926;-72
2022/02/04 07:04:13;;;;;;;;;;;9.10;93.80;;;;;;5075103;28;19920;-72
2022/02/04 07:06:43;;;;;;;;;;;9.10;93.90;;;;;;5076287;28;19971;-71
2022/02/04 07:14:17;;;;;;;;;;;9.10;93.90;;;;;;5076448;28;19939;-72
2022/02/04 07:19:48;;;;;;;;;;;9.00;93.90;;;;;;5053482;28;19919;-71
2022/02/04 07:22:27;;;;;;;;;;;9.00;94.00;;;;;;5075883;28;20043;-72
2022/02/04 07:24:56;;;;;;;;;;;9.00;94.00;;;;;;5075892;28;19962;-72
2022/02/04 07:27:22;;;;;;;;;;;9.00;93.90;;;;;;5075133;28;19917;-72
2022/02/04 07:29:51;;;;;;;;;;;9.00;93.90;;;;;;5076729;28;20004;-72
2022/02/04 07:32:26;;;;;;;;;;;9.00;94.10;;;;;;5076534;28;19919;-72
2022/02/04 07:42:50;;;;;;;;;;;8.90;93.90;;;;;;5069050;28;19965;-72
2022/02/04 07:45:16;;;;;;;;;;;9.00;94.00;;;;;;5076841;28;19913;-72
2022/02/04 07:47:41;;;;;;;;;;;9.00;93.90;;;;;;5076833;28;20026;-72
2022/02/04 07:50:07;;;;;;;;;;;9.00;93.90;;;;;;5075536;28;20003;-72
2022/02/04 07:52:33;;;;;;;;;;;9.00;93.90;;;;;;5075465;28;19925;-72
2022/02/04 07:54:59;;;;;;;;;;;9.00;93.90;;;;;;5076451;28;19917;-72
2022/02/04 07:57:24;;;;;;;;;;;9.00;93.90;;;;;;5076432;28;20352;-72
2022/02/04 07:59:50;;;;;;;;;;;9.00;93.90;;;;;;5076565;28;19920;-72
2022/02/04 08:02:16;;;;;;;;;;;9.00;93.90;;;;;;5075369;28;19912;-72
2022/02/04 08:04:44;;;;;;;;;;;9.00;93.90;;;;;;5076568;28;19923;-72
2022/02/04 08:07:14;;;;;;;;;;;9.00;93.90;;;;;;5076063;28;19913;-72
2022/02/04 08:10:00;;;;;;;;;;;9.00;93.90;;;;;;5062291;28;19947;-72
2022/02/04 08:20:29;;;;;;;;;;;9.10;93.90;;;;;;5076634;28;19979;-72
2022/02/04 08:46:53;;;;;;;;;;;9.30;93.40;;;;;;5078182;28;19977;-72
2022/02/04 08:49:38;;;;;;;;;;;9.30;93.40;;;;;;5079180;28;19920;-72
2022/02/04 08:57:03;;;;;;;;;;;9.50;93.30;;;;;;5078719;28;19913;-72
2022/02/04 09:02:02;;;;;;;;;;;9.60;93.10;;;;;;5075279;28;19948;-72
2022/02/04 09:04:35;;;;;;;;;;;9.70;93.10;;;;;;5078806;28;19940;-72
2022/02/04 09:07:05;;;;;;;;;;;9.80;93.10;;;;;;5078670;28;19912;-72
2022/02/04 09:23:11;;;;;;;;;;;10.40;92.50;;;;;;5018033;28;19964;-72
2022/02/04 09:25:37;;;;;;;;;;;10.50;92.20;;;;;;5051610;28;19912;-72
2022/02/04 09:28:03;;;;;;;;;;;10.60;92.00;;;;;;5078413;28;19912;-72
2022/02/04 09:30:30;;;;;;;;;;;10.70;91.70;;;;;;5077776;28;19988;-72
2022/02/04 09:32:55;;;;;;;;;;;10.80;91.60;;;;;;5079020;28;19931;-72
2022/02/04 09:35:23;;;;;;;;;;;10.90;91.50;;;;;;5069769;28;19921;-72
2022/02/04 09:37:49;;;;;;;;;;;11.10;91.90;;;;;;5078430;28;20389;-72
2022/02/04 09:40:16;;;;;;;;;;;11.50;91.50;;;;;;5075885;28;20371;-72
2022/02/04 09:42:43;;;;;;;;;;;12.00;91.10;;;;;;5077963;28;19916;-72
2022/02/04 09:45:10;;;;;;;;;;;12.30;91.10;;;;;;5074685;28;19922;-72
2022/02/04 09:47:37;;;;;;;;;;;12.90;89.20;;;;;;5071971;28;19959;-72
2022/02/04 09:50:04;;;;;;;;;;;13.30;87.30;;;;;;5075109;28;19923;-73
2022/02/04 10:09:06;;;;;;;;;;;14.80;76.30;;;;;;5077244;28;19958;-74
2022/02/04 10:19:24;;;;;;;;;;;13.80;78.90;;;;;;5076153;28;19958;-74
2022/02/04 10:21:56;;;;;;;;;;;13.90;80.00;;;;;;5076951;28;19916;-74
2022/02/04 10:24:28;;;;;;;;;;;13.90;77.70;;;;;;5077039;28;20391;-75
2022/02/04 10:27:12;;;;;;;;;;;13.80;77.50;;;;;;5071492;28;19913;-74
2022/02/04 10:29:39;;;;;;;;;;;13.80;78.70;;;;;;5076393;28;19917;-74
2022/02/04 10:32:05;;;;;;;;;;;13.70;77.80;;;;;;5077049;28;19917;-74
2022/02/04 10:34:32;;;;;;;;;;;13.80;79.20;;;;;;5076373;28;19919;-75
2022/02/04 10:37:20;;;;;;;;;;;13.80;78.10;;;;;;5075471;28;19919;-74
2022/02/04 10:40:07;;;;;;;;;;;14.10;78.20;;;;;;5068165;28;19909;-74
2022/02/04 10:42:46;;;;;;;;;;;14.50;75.60;;;;;;5071513;28;20050;-75
2022/02/04 10:45:37;;;;;;;;;;;14.70;74.50;;;;;;5077336;28;20057;-74
2022/02/04 10:58:54;;;;;;;;;;;14.00;75.10;;;;;;5077508;28;19919;-73
2022/02/04 11:01:30;;;;;;;;;;;14.00;76.70;;;;;;5068146;28;19947;-73
2022/02/04 11:04:03;;;;;;;;;;;14.00;75.90;;;;;;5077059;28;19918;-73
2022/02/04 11:06:47;;;;;;;;;;;14.00;75.00;;;;;;5077489;28;20276;-73
2022/02/04 11:36:23;;;;;;;;;;;14.30;76.30;;;;;;5077184;28;20018;-75
2022/02/04 11:53:26;;;;;;;;;;;13.70;80.00;;;;;;5044463;28;19915;-76
2022/02/04 11:55:59;;;;;;;;;;;13.50;81.00;;;;;;5071123;28;19916;-75
2022/02/04 11:58:25;;;;;;;;;;;13.40;82.30;;;;;;5080697;28;19958;-75
2022/02/04 12:01:02;;;;;;;;;;;13.30;83.20;;;;;;5079785;28;20256;-75
2022/02/04 12:03:36;;;;;;;;;;;13.20;84.10;;;;;;5080906;28;19915;-75
2022/02/04 12:06:02;;;;;;;;;;;13.00;85.30;;;;;;5081031;28;20267;-75
2022/02/04 12:08:31;;;;;;;;;;;12.90;86.80;;;;;;5080751;28;19915;-75
2022/02/04 12:11:00;;;;;;;;;;;12.80;88.10;;;;;;5080815;28;19948;-75
2022/02/04 12:13:26;;;;;;;;;;;12.70;88.90;;;;;;5080896;28;19908;-74
2022/02/04 12:16:04;;;;;;;;;;;12.50;88.50;;;;;;5080647;28;20397;-75
2022/02/04 12:18:44;;;;;;;;;;;12.30;86.70;;;;;;5080855;28;20007;-75
2022/02/04 12:21:13;;;;;;;;;;;12.10;87.00;;;;;;5080602;28;19916;-75
2022/02/04 12:23:44;;;;;;;;;;;11.90;87.20;;;;;;5080602;28;20290;-75
2022/02/04 12:26:12;;;;;;;;;;;11.90;87.60;;;;;;5063483;28;19964;-75
2022/02/04 12:28:41;;;;;;;;;;;11.80;87.00;;;;;;5080888;28;19915;-75
2022/02/04 12:31:08;;;;;;;;;;;11.80;87.10;;;;;;5080361;28;20275;-75
2022/02/04 12:33:47;;;;;;;;;;;11.80;87.30;;;;;;5079068;28;19908;-75
2022/02/04 12:36:24;;;;;;;;;;;11.80;86.80;;;;;;5080585;28;19916;-75
2022/02/04 12:38:52;;;;;;;;;;;11.80;86.40;;;;;;5080118;28;20347;-75
2022/02/04 12:41:19;;;;;;;;;;;11.80;86.20;;;;;;5080340;28;20310;-75
2022/02/04 12:43:47;;;;;;;;;;;11.80;86.20;;;;;;5080088;28;20345;-75
2022/02/04 12:46:13;;;;;;;;;;;11.80;86.10;;;;;;5080277;28;19958;-75
2022/02/04 12:48:39;;;;;;;;;;;11.80;86.50;;;;;;5080593;28;20422;-75
2022/02/04 12:51:05;;;;;;;;;;;11.80;86.90;;;;;;5080281;28;19970;-75
2022/02/04 12:53:35;;;;;;;;;;;11.80;86.60;;;;;;5079593;28;19909;-75
2022/02/04 12:56:33;;;;;;;;;;;11.70;86.60;;;;;;5079687;28;20402;-75
2022/02/04 12:59:23;;;;;;;;;;;11.60;86.10;;;;;;5079863;28;20486;-75
2022/02/04 13:07:33;;;;;;;;;;;11.20;86.80;;;;;;5068605;28;20390;-75
2022/02/04 13:09:58;;;;;;;;;;;11.30;88.00;;;;;;5079091;28;19953;-75
2022/02/04 13:12:24;;;;;;;;;;;11.20;87.00;;;;;;5079960;28;19920;-75
2022/02/04 13:14:50;;;;;;;;;;;11.30;87.30;;;;;;5079621;28;19920;-75
2022/02/04 13:17:28;;;;;;;;;;;11.30;87.30;;;;;;5079830;28;19908;-75
2022/02/04 13:19:55;;;;;;;;;;;11.30;87.30;;;;;;5079487;28;19908;-75
2022/02/04 13:22:21;;;;;;;;;;;11.30;87.40;;;;;;5079347;28;20364;-74
2022/02/04 13:25:02;;;;;;;;;;;11.30;87.50;;;;;;5076242;28;19927;-75
2022/02/04 13:27:28;;;;;;;;;;;11.30;87.50;;;;;;5071736;28;19974;-74
2022/02/04 13:29:54;;;;;;;;;;;11.40;87.90;;;;;;5079323;28;19909;-75
2022/02/04 13:32:21;;;;;;;;;;;11.40;87.70;;;;;;5079367;28;20398;-74
2022/02/04 13:34:46;;;;;;;;;;;11.50;87.50;;;;;;5079116;28;20283;-74
2022/02/04 13:37:24;;;;;;;;;;;11.50;86.40;;;;;;5079213;28;19920;-75
2022/02/04 13:39:58;;;;;;;;;;;11.40;86.40;;;;;;5065433;28;20383;-75
2022/02/04 13:42:32;;;;;;;;;;;11.30;84.60;;;;;;5079039;28;20268;-75
2022/02/04 13:45:07;;;;;;;;;;;11.20;84.60;;;;;;5078945;28;19928;-75
2022/02/04 13:47:49;;;;;;;;;;;11.10;84.70;;;;;;5079054;28;19913;-75
2022/02/04 13:55:39;;;;;;;;;;;11.20;85.40;;;;;;5078735;28;19974;-75
2022/02/04 14:03:33;;;;;;;;;;;11.60;85.80;;;;;;5078666;28;19908;-74
2022/02/04 14:06:03;;;;;;;;;;;11.60;85.10;;;;;;5078892;28;19909;-75
2022/02/04 14:08:37;;;;;;;;;;;11.70;84.50;;;;;;5078217;28;19915;-75
2022/02/04 14:11:08;;;;;;;;;;;11.70;84.90;;;;;;5078653;28;19940;-75
2022/02/04 14:13:34;;;;;;;;;;;11.70;84.80;;;;;;5077180;28;19908;-75
2022/02/04 14:16:01;;;;;;;;;;;11.70;83.40;;;;;;5077310;28;20332;-75
2022/02/04 14:18:27;;;;;;;;;;;11.70;82.50;;;;;;5078319;28;19944;-75
2022/02/04 14:20:53;;;;;;;;;;;11.60;82.40;;;;;;5078409;28;19909;-74
2022/02/04 14:23:20;;;;;;;;;;;11.60;83.20;;;;;;5078004;28;19936;-75
2022/02/04 14:25:47;;;;;;;;;;;11.50;80.70;;;;;;5066940;28;19916;-75
2022/02/04 14:28:16;;;;;;;;;;;11.40;81.60;;;;;;5076477;28;19908;-74
2022/02/04 14:30:42;;;;;;;;;;;11.30;82.40;;;;;;5078392;28;19915;-75
2022/02/04 14:36:03;;;;;;;;;;;11.10;81.30;;;;;;5078143;28;19967;-75
2022/02/04 14:52:38;;;;;;;;;;;11.10;82.50;;;;;;5070877;28;19916;-74
2022/02/04 15:00:39;;;;;;;;;;;11.20;81.50;;;;;;5077780;28;19920;-75
2022/02/04 15:05:42;;;;;;;;;;;11.40;77.90;;;;;;5064676;28;19916;-75
2022/02/04 15:08:12;;;;;;;;;;;11.40;77.20;;;;;;5077371;28;19908;-75
2022/02/04 15:10:39;;;;;;;;;;;11.40;75.50;;;;;;5077961;28;19909;-75
2022/02/04 15:13:11;;;;;;;;;;;11.40;75.80;;;;;;5077671;28;19909;-75
2022/02/04 15:15:36;;;;;;;;;;;11.40;74.70;;;;;;5077948;28;20361;-75
2022/02/04 15:18:02;;;;;;;;;;;11.40;76.70;;;;;;5077713;28;19943;-75
2022/02/04 15:20:28;;;;;;;;;;;11.40;76.80;;;;;;5077891;28;19908;-75
2022/02/04 15:22:53;;;;;;;;;;;11.30;75.50;;;;;;5077369;28;19916;-75
2022/02/04 15:25:22;;;;;;;;;;;11.30;77.60;;;;;;5069714;28;19943;-75
2022/02/04 15:30:37;;;;;;;;;;;11.30;77.50;;;;;;5036426;28;19908;-75
2022/02/04 15:33:03;;;;;;;;;;;11.20;76.90;;;;;;5078768;28;19912;-75
2022/02/04 15:35:30;;;;;;;;;;;11.20;78.50;;;;;;5081714;28;19975;-75
2022/02/04 15:37:56;;;;;;;;;;;11.10;75.50;;;;;;5081145;28;19908;-75
2022/02/04 15:40:22;;;;;;;;;;;11.00;75.60;;;;;;5081705;28;19919;-75
2022/02/04 15:42:56;;;;;;;;;;;10.90;75.90;;;;;;5081074;28;19924;-75
2022/02/04 15:50:40;;;;;;;;;;;10.60;74.30;;;;;;5081491;28;20439;-75
2022/02/04 15:53:27;;;;;;;;;;;10.50;73.70;;;;;;5079492;28;19909;-75
2022/02/04 15:59:21;;;;;;;;;;;10.20;76.00;;;;;;5081397;28;19908;-75
2022/02/04 16:06:14;;;;;;;;;;;9.90;76.50;;;;;;5081059;28;20012;-75
2022/02/04 16:08:40;;;;;;;;;;;9.80;77.10;;;;;;5080913;28;19974;-75
2022/02/04 16:11:19;;;;;;;;;;;9.80;78.00;;;;;;5080802;28;19909;-75
2022/02/04 16:13:52;;;;;;;;;;;9.70;77.90;;;;;;5066964;28;20287;-75
2022/02/04 16:16:29;;;;;;;;;;;9.60;77.60;;;;;;5080593;28;19936;-75
2022/02/04 16:19:08;;;;;;;;;;;9.60;75.90;;;;;;5080685;28;19952;-75
2022/02/04 16:21:45;;;;;;;;;;;9.60;75.60;;;;;;5078474;28;19959;-75
2022/02/04 16:26:58;;;;;;;;;;;9.40;75.60;;;;;;5067044;28;19915;-75
2022/02/04 16:29:24;;;;;;;;;;;9.40;75.00;;;;;;5080715;28;19912;-75
2022/02/04 16:31:50;;;;;;;;;;;9.30;75.80;;;;;;5080566;28;20447;-75
2022/02/04 16:34:15;;;;;;;;;;;9.30;75.40;;;;;;5080482;28;19923;-74
2022/02/04 16:36:44;;;;;;;;;;;9.20;74.50;;;;;;5080371;28;19909;-74
2022/02/04 16:39:11;;;;;;;;;;;9.30;75.10;;;;;;5080216;28;20442;-75
2022/02/04 16:41:49;;;;;;;;;;;9.30;76.00;;;;;;5080406;28;19909;-75
2022/02/04 16:44:15;;;;;;;;;;;9.20;75.40;;;;;;5078955;28;19955;-74
2022/02/04 16:46:41;;;;;;;;;;;9.20;75.80;;;;;;5080444;28;19923;-75
2022/02/04 16:49:06;;;;;;;;;;;9.20;75.60;;;;;;5080141;28;19999;-74
2022/02/04 16:51:32;;;;;;;;;;;9.10;76.30;;;;;;5079981;28;19917;-75
2022/02/04 16:53:58;;;;;;;;;;;9.00;77.20;;;;;;5079579;28;19916;-74
2022/02/04 16:56:23;;;;;;;;;;;8.90;77.00;;;;;;5080291;28;20426;-74
2022/02/04 16:58:49;;;;;;;;;;;8.80;78.10;;;;;;5080022;28;20375;-74
2022/02/04 17:01:17;;;;;;;;;;;8.70;77.40;;;;;;5080290;28;19909;-74
2022/02/04 17:03:43;;;;;;;;;;;8.70;78.00;;;;;;5078624;28;19908;-74
2022/02/04 17:06:10;;;;;;;;;;;8.60;78.70;;;;;;5080059;28;19914;-75
2022/02/04 17:08:46;;;;;;;;;;;8.50;78.90;;;;;;5079591;28;19908;-74
2022/02/04 17:11:15;;;;;;;;;;;8.50;78.80;;;;;;5078943;28;19920;-74
2022/02/04 17:13:40;;;;;;;;;;;8.40;79.10;;;;;;5066974;28;19908;-74
2022/02/04 17:16:06;;;;;;;;;;;8.30;79.50;;;;;;5079584;28;19919;-74
2022/02/04 17:18:32;;;;;;;;;;;8.20;79.30;;;;;;5079814;28;19920;-74
2022/02/04 17:20:58;;;;;;;;;;;8.20;80.40;;;;;;5079679;28;19909;-74
2022/02/04 17:23:39;;;;;;;;;;;8.00;79.70;;;;;;5079425;28;19915;-74
2022/02/04 17:26:05;;;;;;;;;;;8.00;79.90;;;;;;5065811;28;19915;-74
2022/02/04 17:28:31;;;;;;;;;;;8.00;79.80;;;;;;5079634;28;20430;-74
2022/02/04 17:30:57;;;;;;;;;;;7.90;79.90;;;;;;5079390;28;20383;-74
2022/02/04 17:33:23;;;;;;;;;;;7.80;80.20;;;;;;5079428;28;19912;-73
2022/02/04 17:35:49;;;;;;;;;;;7.80;80.60;;;;;;5079260;28;19916;-73
2022/02/04 17:38:15;;;;;;;;;;;7.70;81.00;;;;;;5079270;28;19957;-73
2022/02/04 17:40:41;;;;;;;;;;;7.70;81.20;;;;;;5079228;28;19909;-73
2022/02/04 17:43:07;;;;;;;;;;;7.50;81.40;;;;;;5079092;28;20364;-73
2022/02/04 17:45:32;;;;;;;;;;;7.50;81.60;;;;;;5077742;28;19974;-74
2022/02/04 17:48:08;;;;;;;;;;;7.40;81.60;;;;;;5079388;28;19991;-75
2022/02/04 17:50:47;;;;;;;;;;;7.40;81.20;;;;;;5078827;28;19909;-74
2022/02/04 17:53:18;;;;;;;;;;;7.40;81.50;;;;;;5078458;28;19919;-74
2022/02/04 17:55:53;;;;;;;;;;;7.30;81.90;;;;;;5078066;28;19913;-74
2022/02/04 18:06:26;;;;;;;;;;;7.00;82.40;;;;;;5078923;28;19962;-74
2022/02/04 18:08:52;;;;;;;;;;;6.90;83.20;;;;;;5078523;28;19912;-74
2022/02/04 18:11:18;;;;;;;;;;;6.90;82.70;;;;;;5078763;28;19953;-74
2022/02/04 18:13:43;;;;;;;;;;;6.80;82.60;;;;;;5078529;28;19915;-74
2022/02/04 18:16:10;;;;;;;;;;;6.80;82.60;;;;;;5078486;28;19912;-74
2022/02/04 18:18:36;;;;;;;;;;;6.80;82.60;;;;;;5077315;28;19908;-74
2022/02/04 18:21:02;;;;;;;;;;;6.70;82.80;;;;;;5078328;28;19915;-74
2022/02/04 18:23:28;;;;;;;;;;;6.70;83.00;;;;;;5076844;28;20003;-74
2022/02/04 18:25:54;;;;;;;;;;;6.60;83.00;;;;;;5065867;28;19963;-74
2022/02/04 18:28:20;;;;;;;;;;;6.60;83.10;;;;;;5077166;28;20314;-74
2022/02/04 18:30:46;;;;;;;;;;;6.50;83.10;;;;;;5078548;28;19931;-74
2022/02/04 18:33:12;;;;;;;;;;;6.50;83.30;;;;;;5078104;28;20375;-74
2022/02/04 18:35:39;;;;;;;;;;;6.40;83.40;;;;;;5078397;28;19913;-74
2022/02/04 18:38:17;;;;;;;;;;;6.40;83.50;;;;;;5077925;28;19908;-74
2022/02/04 18:41:22;;;;;;;;;;;6.40;83.70;;;;;;5078129;28;19916;-74
2022/02/04 18:43:55;;;;;;;;;;;6.30;83.60;;;;;;5076813;28;19924;-74
2022/02/04 18:48:51;;;;;;;;;;;6.30;83.80;;;;;;5077971;28;19918;-74
2022/02/04 18:54:00;;;;;;;;;;;6.20;83.90;;;;;;5077611;28;19915;-74
2022/02/04 18:56:54;;;;;;;;;;;6.20;84.20;;;;;;5077843;28;19935;-74
2022/02/04 18:59:17;;;;;;;;;;;6.10;84.10;;;;;;5066426;28;20375;-74
2022/02/04 19:01:44;;;;;;;;;;;6.10;84.50;;;;;;5077938;28;20011;-74
2022/02/04 19:04:14;;;;;;;;;;;6.10;84.50;;;;;;5077902;28;19908;-74
2022/02/04 19:06:45;;;;;;;;;;;6.10;84.60;;;;;;5075750;28;19922;-74
2022/02/04 19:09:11;;;;;;;;;;;6.10;84.60;;;;;;5077938;28;19909;-74
2022/02/04 19:11:50;;;;;;;;;;;6.10;84.80;;;;;;5077602;28;19912;-74
2022/02/04 19:14:31;;;;;;;;;;;6.00;84.80;;;;;;5077679;28;19909;-74
2022/02/04 19:17:06;;;;;;;;;;;6.00;85.00;;;;;;5065682;28;20050;-74
2022/02/04 19:22:18;;;;;;;;;;;5.90;85.20;;;;;;5076334;28;19909;-74
2022/02/04 19:24:46;;;;;;;;;;;5.90;85.40;;;;;;5074758;28;19920;-74
2022/02/04 19:27:11;;;;;;;;;;;5.90;85.40;;;;;;5067634;28;19908;-74
2022/02/04 19:29:44;;;;;;;;;;;5.90;85.40;;;;;;5077594;28;19909;-74
2022/02/04 19:32:11;;;;;;;;;;;5.90;85.40;;;;;;5077529;28;19908;-74
2022/02/04 19:34:37;;;;;;;;;;;5.90;85.60;;;;;;5077573;28;19925;-73
2022/02/04 19:37:02;;;;;;;;;;;5.80;85.50;;;;;;5077373;28;20375;-73
2022/02/04 19:39:28;;;;;;;;;;;5.80;85.50;;;;;;5077329;28;19908;-74
2022/02/04 19:42:03;;;;;;;;;;;5.80;85.60;;;;;;5077779;28;19917;-74
2022/02/04 19:44:30;;;;;;;;;;;5.80;85.40;;;;;;5077233;28;19970;-74
2022/02/04 19:47:01;;;;;;;;;;;5.70;85.30;;;;;;5077514;28;19908;-74
2022/02/04 19:49:34;;;;;;;;;;;5.70;85.50;;;;;;5064338;28;19913;-74
2022/02/04 19:52:12;;;;;;;;;;;5.70;85.40;;;;;;5076996;28;19908;-74
2022/02/04 19:55:03;;;;;;;;;;;5.60;85.40;;;;;;5075819;28;19913;-73
2022/02/04 20:24:50;;;;;;;;;;;5.50;85.90;;;;;;5079149;28;20334;-73
2022/02/04 20:27:16;;;;;;;;;;;5.40;85.90;;;;;;5071018;28;19955;-74
2022/02/04 20:29:42;;;;;;;;;;;5.40;85.90;;;;;;5080570;28;19908;-74
2022/02/04 20:32:07;;;;;;;;;;;5.40;85.90;;;;;;5080535;28;19909;-73
2022/02/04 20:34:34;;;;;;;;;;;5.40;86.00;;;;;;5080339;28;19975;-73
2022/02/04 20:37:00;;;;;;;;;;;5.40;85.90;;;;;;5080431;28;20011;-73
2022/02/04 20:39:39;;;;;;;;;;;5.40;86.00;;;;;;5080292;28;19997;-73
2022/02/04 20:42:05;;;;;;;;;;;5.30;85.90;;;;;;5080397;28;20326;-73
2022/02/04 20:44:31;;;;;;;;;;;5.30;86.10;;;;;;5080212;28;19924;-73
2022/02/04 20:46:57;;;;;;;;;;;5.20;86.10;;;;;;5080492;28;19944;-74
2022/02/04 20:49:22;;;;;;;;;;;5.20;86.00;;;;;;5080223;28;20354;-73
2022/02/04 20:51:48;;;;;;;;;;;5.20;86.10;;;;;;5080089;28;20382;-73
2022/02/04 20:54:14;;;;;;;;;;;5.10;86.10;;;;;;5079479;28;19912;-73
2022/02/04 20:56:39;;;;;;;;;;;5.10;86.10;;;;;;5080605;28;19934;-73
2022/02/04 20:59:05;;;;;;;;;;;5.10;86.10;;;;;;5080019;28;20268;-73
2022/02/04 21:01:32;;;;;;;;;;;5.00;86.20;;;;;;5080243;28;20375;-73
2022/02/04 21:03:59;;;;;;;;;;;5.00;86.40;;;;;;5079955;28;19909;-73
2022/02/04 21:09:47;;;;;;;;;;;5.00;86.60;;;;;;5079706;28;19908;-73
2022/02/04 21:15:02;;;;;;;;;;;4.90;86.50;;;;;;5079848;28;19919;-73
2022/02/04 21:17:32;;;;;;;;;;;4.90;86.50;;;;;;5079660;28;20399;-73
2022/02/04 21:19:59;;;;;;;;;;;4.90;86.90;;;;;;5079639;28;19916;-74
2022/02/04 21:22:24;;;;;;;;;;;4.90;87.60;;;;;;5079362;28;19939;-73
2022/02/04 21:24:50;;;;;;;;;;;4.90;87.10;;;;;;5075683;28;19909;-73
2022/02/04 21:27:17;;;;;;;;;;;4.90;87.40;;;;;;5070081;28;20351;-73
2022/02/04 21:29:44;;;;;;;;;;;4.90;87.40;;;;;;5078710;28;19916;-73
2022/02/04 21:32:09;;;;;;;;;;;4.90;87.20;;;;;;5079357;28;19934;-73
2022/02/04 21:37:04;;;;;;;;;;;5.00;87.40;;;;;;5079403;28;19924;-73
2022/02/04 21:39:33;;;;;;;;;;;5.00;87.50;;;;;;5079137;28;19947;-73